sensor_id;sensor_type;location;lat;lon;timestamp;temperature;humidity
47616;DHT22;69146;52.266;7.000;2024-01-10T00:00:57;-4.80;99.90
47616;DHT22;69146;52.266;7.000;2024-01-10T00:03:43;-4.80;99.90
47616;DHT22;69146;52.266;7.000;2024-01-10T00:06:27;-4.90;99.90
47616;DHT22;69146;52.266;7.000;2024-01-10T00:09:12;-4.90;99.90
47616;DHT22;69146;52.266;7.000;2024-01-10T00:11:57;-4.90;99.90
47616;DHT22;69146;52.266;7.000;2024-01-10T00:14:41;-5.00;99.90
47616;DHT22;69146;52.266;7.000;2024-01-10T00:17:25;-5.00;99.90
47616;DHT22;69146;52.266;7.000;2024-01-10T00:20:11;-5.00;99.90
47616;DHT22;69146;52.266;7.000;2024-01-10T00:22:56;-5.00;99.90
47616;DHT22;69146;52.266;7.000;2024-01-10T00:25:41;-5.10;99.90
47616;DHT22;69146;52.266;7.000;2024-01-10T00:28:25;-5.00;99.90
47616;DHT22;69146;52.266;7.000;2024-01-10T00:31:10;-5.10;99.90
47616;DHT22;69146;52.266;7.000;2024-01-10T00:33:54;-5.10;99.90
47616;DHT22;69146;52.266;7.000;2024-01-10T00:36:40;-5.10;99.90
47616;DHT22;69146;52.266;7.000;2024-01-10T00:39:24;-5.20;99.90
47616;DHT22;69146;52.266;7.000;2024-01-10T00:42:09;-5.20;99.90
47616;DHT22;69146;52.266;7.000;2024-01-10T00:44:54;-5.20;99.90
47616;DHT22;69146;52.266;7.000;2024-01-10T00:47:38;-5.20;99.90
47616;DHT22;69146;52.266;7.000;2024-01-10T00:50:23;-5.20;99.90
47616;DHT22;69146;52.266;7.000;2024-01-10T00:53:15;-5.20;99.90
47616;DHT22;69146;52.266;7.000;2024-01-10T00:55:59;-5.20;99.90
47616;DHT22;69146;52.266;7.000;2024-01-10T00:58:43;-5.10;99.90
47616;DHT22;69146;52.266;7.000;2024-01-10T01:01:28;-5.10;99.90
47616;DHT22;69146;52.266;7.000;2024-01-10T01:04:12;-5.20;99.90
47616;DHT22;69146;52.266;7.000;2024-01-10T01:06:57;-5.20;99.90
47616;DHT22;69146;52.266;7.000;2024-01-10T01:09:43;-5.10;99.90
47616;DHT22;69146;52.266;7.000;2024-01-10T01:12:27;-5.10;99.90
47616;DHT22;69146;52.266;7.000;2024-01-10T01:15:12;-5.10;99.90
47616;DHT22;69146;52.266;7.000;2024-01-10T01:17:56;-5.10;99.90
47616;DHT22;69146;52.266;7.000;2024-01-10T01:20:41;-5.20;99.90
47616;DHT22;69146;52.266;7.000;2024-01-10T01:23:25;-5.30;99.90
47616;DHT22;69146;52.266;7.000;2024-01-10T01:26:11;-5.20;99.90
47616;DHT22;69146;52.266;7.000;2024-01-10T01:28:56;-5.20;99.90
47616;DHT22;69146;52.266;7.000;2024-01-10T01:31:41;-5.20;99.90
47616;DHT22;69146;52.266;7.000;2024-01-10T01:34:25;-5.20;99.90
47616;DHT22;69146;52.266;7.000;2024-01-10T01:37:10;-5.20;99.90
47616;DHT22;69146;52.266;7.000;2024-01-10T01:39:55;-5.30;99.90
47616;DHT22;69146;52.266;7.000;2024-01-10T01:42:42;-5.20;99.90
47616;DHT22;69146;52.266;7.000;2024-01-10T01:45:27;-5.20;99.90
47616;DHT22;69146;52.266;7.000;2024-01-10T01:48:13;-5.20;99.90
47616;DHT22;69146;52.266;7.000;2024-01-10T01:51:00;-5.30;99.90
47616;DHT22;69146;52.266;7.000;2024-01-10T01:53:46;-5.30;99.90
47616;DHT22;69146;52.266;7.000;2024-01-10T01:56:33;-5.30;99.90
47616;DHT22;69146;52.266;7.000;2024-01-10T01:59:20;-5.30;99.90
47616;DHT22;69146;52.266;7.000;2024-01-10T02:02:05;-5.30;99.90
47616;DHT22;69146;52.266;7.000;2024-01-10T02:04:49;-5.30;99.90
47616;DHT22;69146;52.266;7.000;2024-01-10T02:07:34;-5.30;99.90
47616;DHT22;69146;52.266;7.000;2024-01-10T02:10:19;-5.40;99.90
47616;DHT22;69146;52.266;7.000;2024-01-10T02:13:04;-5.40;99.90
47616;DHT22;69146;52.266;7.000;2024-01-10T02:15:50;-5.40;99.90
47616;DHT22;69146;52.266;7.000;2024-01-10T02:18:35;-5.40;99.90
47616;DHT22;69146;52.266;7.000;2024-01-10T02:21:20;-5.40;99.90
47616;DHT22;69146;52.266;7.000;2024-01-10T02:24:04;-5.30;99.90
47616;DHT22;69146;52.266;7.000;2024-01-10T02:26:50;-5.40;99.90
47616;DHT22;69146;52.266;7.000;2024-01-10T02:29:34;-5.40;99.90
47616;DHT22;69146;52.266;7.000;2024-01-10T02:32:19;-5.40;99.90
47616;DHT22;69146;52.266;7.000;2024-01-10T02:35:04;-5.40;99.90
47616;DHT22;69146;52.266;7.000;2024-01-10T02:37:49;-5.40;99.90
47616;DHT22;69146;52.266;7.000;2024-01-10T02:40:35;-5.40;99.90
47616;DHT22;69146;52.266;7.000;2024-01-10T02:43:21;-5.40;99.90
47616;DHT22;69146;52.266;7.000;2024-01-10T02:46:05;-5.40;99.90
47616;DHT22;69146;52.266;7.000;2024-01-10T02:48:50;-5.40;99.90
47616;DHT22;69146;52.266;7.000;2024-01-10T02:51:34;-5.50;99.90
47616;DHT22;69146;52.266;7.000;2024-01-10T02:54:19;-5.60;99.90
47616;DHT22;69146;52.266;7.000;2024-01-10T02:57:03;-5.50;99.90
47616;DHT22;69146;52.266;7.000;2024-01-10T02:59:49;-5.60;99.90
47616;DHT22;69146;52.266;7.000;2024-01-10T03:02:34;-5.60;99.90
47616;DHT22;69146;52.266;7.000;2024-01-10T03:05:18;-5.60;99.90
47616;DHT22;69146;52.266;7.000;2024-01-10T03:08:03;-5.60;99.90
47616;DHT22;69146;52.266;7.000;2024-01-10T03:10:50;-5.60;99.90
47616;DHT22;69146;52.266;7.000;2024-01-10T03:13:35;-5.70;99.90
47616;DHT22;69146;52.266;7.000;2024-01-10T03:16:21;-5.70;99.90
47616;DHT22;69146;52.266;7.000;2024-01-10T03:19:05;-5.70;99.90
47616;DHT22;69146;52.266;7.000;2024-01-10T03:21:49;-5.60;99.90
47616;DHT22;69146;52.266;7.000;2024-01-10T03:24:34;-5.60;99.90
47616;DHT22;69146;52.266;7.000;2024-01-10T03:27:18;-5.60;99.90
47616;DHT22;69146;52.266;7.000;2024-01-10T03:30:03;-5.60;99.90
47616;DHT22;69146;52.266;7.000;2024-01-10T03:32:49;-5.60;99.90
47616;DHT22;69146;52.266;7.000;2024-01-10T03:35:33;-5.60;99.90
47616;DHT22;69146;52.266;7.000;2024-01-10T03:38:18;-5.60;99.90
47616;DHT22;69146;52.266;7.000;2024-01-10T03:41:02;-5.60;99.90
47616;DHT22;69146;52.266;7.000;2024-01-10T03:43:47;-5.70;99.90
47616;DHT22;69146;52.266;7.000;2024-01-10T03:46:31;-5.60;99.90
47616;DHT22;69146;52.266;7.000;2024-01-10T03:49:17;-5.60;99.90
47616;DHT22;69146;52.266;7.000;2024-01-10T03:52:02;-5.60;99.90
47616;DHT22;69146;52.266;7.000;2024-01-10T03:54:46;-5.60;99.90
47616;DHT22;69146;52.266;7.000;2024-01-10T03:57:30;-5.60;99.90
47616;DHT22;69146;52.266;7.000;2024-01-10T04:00:15;-5.60;99.90
47616;DHT22;69146;52.266;7.000;2024-01-10T04:03:00;-5.70;99.90
47616;DHT22;69146;52.266;7.000;2024-01-10T04:05:46;-5.80;99.90
47616;DHT22;69146;52.266;7.000;2024-01-10T04:08:30;-5.70;99.90
47616;DHT22;69146;52.266;7.000;2024-01-10T04:11:16;-5.70;99.90
47616;DHT22;69146;52.266;7.000;2024-01-10T04:14:00;-5.60;99.90
47616;DHT22;69146;52.266;7.000;2024-01-10T04:16:45;-5.70;99.90
47616;DHT22;69146;52.266;7.000;2024-01-10T04:19:30;-5.70;99.90
47616;DHT22;69146;52.266;7.000;2024-01-10T04:22:15;-5.70;99.90
47616;DHT22;69146;52.266;7.000;2024-01-10T04:25:00;-5.70;99.90
47616;DHT22;69146;52.266;7.000;2024-01-10T04:27:45;-5.70;99.90
47616;DHT22;69146;52.266;7.000;2024-01-10T04:30:29;-5.70;99.90
47616;DHT22;69146;52.266;7.000;2024-01-10T04:33:14;-5.70;99.90
47616;DHT22;69146;52.266;7.000;2024-01-10T04:35:58;-5.70;99.90
47616;DHT22;69146;52.266;7.000;2024-01-10T04:38:44;-5.70;99.90
47616;DHT22;69146;52.266;7.000;2024-01-10T04:41:29;-5.70;99.90
47616;DHT22;69146;52.266;7.000;2024-01-10T04:44:13;-5.70;99.90
47616;DHT22;69146;52.266;7.000;2024-01-10T04:46:58;-5.70;99.90
47616;DHT22;69146;52.266;7.000;2024-01-10T04:49:42;-5.70;99.90
47616;DHT22;69146;52.266;7.000;2024-01-10T04:52:27;-5.70;99.90
47616;DHT22;69146;52.266;7.000;2024-01-10T04:55:13;-5.70;99.90
47616;DHT22;69146;52.266;7.000;2024-01-10T04:57:57;-5.70;99.90
47616;DHT22;69146;52.266;7.000;2024-01-10T05:00:42;-5.70;99.90
47616;DHT22;69146;52.266;7.000;2024-01-10T05:03:26;-5.80;99.90
47616;DHT22;69146;52.266;7.000;2024-01-10T05:06:10;-5.80;99.90
47616;DHT22;69146;52.266;7.000;2024-01-10T05:08:55;-5.80;99.90
47616;DHT22;69146;52.266;7.000;2024-01-10T05:11:43;-5.80;99.90
47616;DHT22;69146;52.266;7.000;2024-01-10T05:14:32;-5.80;99.90
47616;DHT22;69146;52.266;7.000;2024-01-10T05:17:16;-5.80;99.90
47616;DHT22;69146;52.266;7.000;2024-01-10T05:20:01;-5.80;99.90
47616;DHT22;69146;52.266;7.000;2024-01-10T05:22:46;-5.90;99.90
47616;DHT22;69146;52.266;7.000;2024-01-10T05:25:33;-5.90;99.90
47616;DHT22;69146;52.266;7.000;2024-01-10T05:28:18;-5.80;99.90
47616;DHT22;69146;52.266;7.000;2024-01-10T05:31:03;-5.80;99.90
47616;DHT22;69146;52.266;7.000;2024-01-10T05:33:48;-5.80;99.90
47616;DHT22;69146;52.266;7.000;2024-01-10T05:36:32;-5.80;99.90
47616;DHT22;69146;52.266;7.000;2024-01-10T05:39:18;-5.90;99.90
47616;DHT22;69146;52.266;7.000;2024-01-10T05:42:06;-5.90;99.90
47616;DHT22;69146;52.266;7.000;2024-01-10T05:44:52;-6.00;99.90
47616;DHT22;69146;52.266;7.000;2024-01-10T05:47:37;-5.90;99.90
47616;DHT22;69146;52.266;7.000;2024-01-10T05:50:21;-5.80;99.90
47616;DHT22;69146;52.266;7.000;2024-01-10T05:53:05;-5.70;99.90
47616;DHT22;69146;52.266;7.000;2024-01-10T05:55:50;-5.60;99.90
47616;DHT22;69146;52.266;7.000;2024-01-10T05:58:35;-5.70;99.90
47616;DHT22;69146;52.266;7.000;2024-01-10T06:01:21;-5.70;99.90
47616;DHT22;69146;52.266;7.000;2024-01-10T06:04:06;-5.70;99.90
47616;DHT22;69146;52.266;7.000;2024-01-10T06:06:50;-5.60;99.90
47616;DHT22;69146;52.266;7.000;2024-01-10T06:09:35;-5.60;99.90
47616;DHT22;69146;52.266;7.000;2024-01-10T06:12:19;-5.60;99.90
47616;DHT22;69146;52.266;7.000;2024-01-10T06:15:04;-5.60;99.90
47616;DHT22;69146;52.266;7.000;2024-01-10T06:17:50;-5.70;99.90
47616;DHT22;69146;52.266;7.000;2024-01-10T06:20:34;-5.70;99.90
47616;DHT22;69146;52.266;7.000;2024-01-10T06:23:22;-5.70;99.90
47616;DHT22;69146;52.266;7.000;2024-01-10T06:26:07;-5.80;99.90
47616;DHT22;69146;52.266;7.000;2024-01-10T06:28:52;-5.80;99.90
47616;DHT22;69146;52.266;7.000;2024-01-10T06:31:36;-5.80;99.90
47616;DHT22;69146;52.266;7.000;2024-01-10T06:34:22;-5.80;99.90
47616;DHT22;69146;52.266;7.000;2024-01-10T06:37:07;-5.80;99.90
47616;DHT22;69146;52.266;7.000;2024-01-10T06:39:51;-5.70;99.90
47616;DHT22;69146;52.266;7.000;2024-01-10T06:42:36;-5.60;99.90
47616;DHT22;69146;52.266;7.000;2024-01-10T06:45:22;-5.70;99.90
47616;DHT22;69146;52.266;7.000;2024-01-10T06:48:06;-5.60;99.90
47616;DHT22;69146;52.266;7.000;2024-01-10T06:50:52;-5.60;99.90
47616;DHT22;69146;52.266;7.000;2024-01-10T06:53:37;-5.60;99.90
47616;DHT22;69146;52.266;7.000;2024-01-10T06:56:22;-5.50;99.90
47616;DHT22;69146;52.266;7.000;2024-01-10T06:59:08;-5.50;99.90
47616;DHT22;69146;52.266;7.000;2024-01-10T07:01:52;-5.60;99.90
47616;DHT22;69146;52.266;7.000;2024-01-10T07:04:37;-5.60;99.90
47616;DHT22;69146;52.266;7.000;2024-01-10T07:07:23;-5.50;99.90
47616;DHT22;69146;52.266;7.000;2024-01-10T07:10:07;-5.50;99.90
47616;DHT22;69146;52.266;7.000;2024-01-10T07:12:52;-5.50;99.90
47616;DHT22;69146;52.266;7.000;2024-01-10T07:15:36;-5.50;99.90
47616;DHT22;69146;52.266;7.000;2024-01-10T07:18:22;-5.60;99.90
47616;DHT22;69146;52.266;7.000;2024-01-10T07:21:08;-5.60;99.90
47616;DHT22;69146;52.266;7.000;2024-01-10T07:23:54;-5.60;99.90
47616;DHT22;69146;52.266;7.000;2024-01-10T07:26:39;-5.60;99.90
47616;DHT22;69146;52.266;7.000;2024-01-10T07:29:24;-5.60;99.90
47616;DHT22;69146;52.266;7.000;2024-01-10T07:32:09;-5.60;99.90
47616;DHT22;69146;52.266;7.000;2024-01-10T07:34:55;-5.60;99.90
47616;DHT22;69146;52.266;7.000;2024-01-10T07:37:40;-5.60;99.90
47616;DHT22;69146;52.266;7.000;2024-01-10T07:40:26;-5.60;99.90
47616;DHT22;69146;52.266;7.000;2024-01-10T07:43:11;-5.60;99.90
47616;DHT22;69146;52.266;7.000;2024-01-10T07:45:56;-5.60;99.90
47616;DHT22;69146;52.266;7.000;2024-01-10T07:48:40;-5.60;99.90
47616;DHT22;69146;52.266;7.000;2024-01-10T07:51:25;-5.60;99.90
47616;DHT22;69146;52.266;7.000;2024-01-10T07:54:09;-5.60;99.90
47616;DHT22;69146;52.266;7.000;2024-01-10T07:56:55;-5.60;99.90
47616;DHT22;69146;52.266;7.000;2024-01-10T07:59:41;-5.60;99.90
47616;DHT22;69146;52.266;7.000;2024-01-10T08:02:25;-5.60;99.90
47616;DHT22;69146;52.266;7.000;2024-01-10T08:05:09;-5.60;99.90
47616;DHT22;69146;52.266;7.000;2024-01-10T08:07:54;-5.50;99.90
47616;DHT22;69146;52.266;7.000;2024-01-10T08:10:39;-5.40;99.90
47616;DHT22;69146;52.266;7.000;2024-01-10T08:13:25;-5.50;99.90
47616;DHT22;69146;52.266;7.000;2024-01-10T08:16:10;-5.50;99.90
47616;DHT22;69146;52.266;7.000;2024-01-10T08:18:55;-5.40;99.90
47616;DHT22;69146;52.266;7.000;2024-01-10T08:21:39;-5.50;99.90
47616;DHT22;69146;52.266;7.000;2024-01-10T08:24:24;-5.40;99.90
47616;DHT22;69146;52.266;7.000;2024-01-10T08:27:08;-5.40;99.90
47616;DHT22;69146;52.266;7.000;2024-01-10T08:29:54;-5.30;99.90
47616;DHT22;69146;52.266;7.000;2024-01-10T08:32:38;-5.20;99.90
47616;DHT22;69146;52.266;7.000;2024-01-10T08:35:23;-5.20;99.90
47616;DHT22;69146;52.266;7.000;2024-01-10T08:38:07;-5.20;99.90
47616;DHT22;69146;52.266;7.000;2024-01-10T08:40:52;-5.10;99.90
47616;DHT22;69146;52.266;7.000;2024-01-10T08:43:37;-5.20;99.90
47616;DHT22;69146;52.266;7.000;2024-01-10T08:46:23;-5.10;99.90
47616;DHT22;69146;52.266;7.000;2024-01-10T08:49:08;-5.10;99.90
47616;DHT22;69146;52.266;7.000;2024-01-10T08:51:54;-5.10;99.90
47616;DHT22;69146;52.266;7.000;2024-01-10T08:54:38;-5.10;99.90
47616;DHT22;69146;52.266;7.000;2024-01-10T08:57:22;-5.00;99.90
47616;DHT22;69146;52.266;7.000;2024-01-10T09:00:07;-5.00;99.90
47616;DHT22;69146;52.266;7.000;2024-01-10T09:02:57;-5.00;99.90
47616;DHT22;69146;52.266;7.000;2024-01-10T09:05:41;-4.90;99.90
47616;DHT22;69146;52.266;7.000;2024-01-10T09:08:26;-4.90;99.90
47616;DHT22;69146;52.266;7.000;2024-01-10T09:11:10;-4.90;99.90
47616;DHT22;69146;52.266;7.000;2024-01-10T09:13:54;-4.80;99.90
47616;DHT22;69146;52.266;7.000;2024-01-10T09:16:39;-4.80;99.90
47616;DHT22;69146;52.266;7.000;2024-01-10T09:19:25;-4.70;99.90
47616;DHT22;69146;52.266;7.000;2024-01-10T09:22:09;-4.70;99.90
47616;DHT22;69146;52.266;7.000;2024-01-10T09:24:53;-4.60;99.90
47616;DHT22;69146;52.266;7.000;2024-01-10T09:27:38;-4.50;99.90
47616;DHT22;69146;52.266;7.000;2024-01-10T09:30:23;-4.50;99.90
47616;DHT22;69146;52.266;7.000;2024-01-10T09:33:08;-4.50;99.90
47616;DHT22;69146;52.266;7.000;2024-01-10T09:35:54;-4.50;99.90
47616;DHT22;69146;52.266;7.000;2024-01-10T09:38:38;-4.40;99.90
47616;DHT22;69146;52.266;7.000;2024-01-10T09:41:23;-4.30;99.90
47616;DHT22;69146;52.266;7.000;2024-01-10T09:44:08;-4.30;99.90
47616;DHT22;69146;52.266;7.000;2024-01-10T09:46:54;-4.20;99.90
47616;DHT22;69146;52.266;7.000;2024-01-10T09:49:39;-4.20;99.90
47616;DHT22;69146;52.266;7.000;2024-01-10T09:52:25;-4.20;99.90
47616;DHT22;69146;52.266;7.000;2024-01-10T09:55:10;-4.20;99.90
47616;DHT22;69146;52.266;7.000;2024-01-10T09:57:55;-4.10;99.90
47616;DHT22;69146;52.266;7.000;2024-01-10T10:00:40;-4.00;99.60
47616;DHT22;69146;52.266;7.000;2024-01-10T10:03:25;-3.90;99.20
47616;DHT22;69146;52.266;7.000;2024-01-10T10:06:10;-3.90;99.50
47616;DHT22;69146;52.266;7.000;2024-01-10T10:08:56;-3.80;99.30
47616;DHT22;69146;52.266;7.000;2024-01-10T10:11:40;-3.80;99.20
47616;DHT22;69146;52.266;7.000;2024-01-10T10:14:26;-3.70;98.70
47616;DHT22;69146;52.266;7.000;2024-01-10T10:17:15;-3.70;98.40
47616;DHT22;69146;52.266;7.000;2024-01-10T10:20:02;-3.70;99.30
47616;DHT22;69146;52.266;7.000;2024-01-10T10:22:58;-3.70;98.70
47616;DHT22;69146;52.266;7.000;2024-01-10T10:25:45;-3.60;99.00
47616;DHT22;69146;52.266;7.000;2024-01-10T10:28:30;-3.50;98.70
47616;DHT22;69146;52.266;7.000;2024-01-10T10:31:16;-3.50;98.50
47616;DHT22;69146;52.266;7.000;2024-01-10T10:34:01;-3.40;98.70
47616;DHT22;69146;52.266;7.000;2024-01-10T10:36:46;-3.30;98.10
47616;DHT22;69146;52.266;7.000;2024-01-10T10:39:32;-3.20;97.70
47616;DHT22;69146;52.266;7.000;2024-01-10T10:42:17;-3.10;97.30
47616;DHT22;69146;52.266;7.000;2024-01-10T10:45:03;-2.90;97.20
47616;DHT22;69146;52.266;7.000;2024-01-10T10:47:47;-2.90;97.60
47616;DHT22;69146;52.266;7.000;2024-01-10T10:50:33;-2.80;97.50
47616;DHT22;69146;52.266;7.000;2024-01-10T10:53:18;-2.70;97.00
47616;DHT22;69146;52.266;7.000;2024-01-10T10:56:04;-2.50;96.60
47616;DHT22;69146;52.266;7.000;2024-01-10T10:58:51;-2.40;96.30
47616;DHT22;69146;52.266;7.000;2024-01-10T11:01:36;-2.30;96.30
47616;DHT22;69146;52.266;7.000;2024-01-10T11:04:21;-2.20;95.60
47616;DHT22;69146;52.266;7.000;2024-01-10T11:07:06;-2.20;96.00
47616;DHT22;69146;52.266;7.000;2024-01-10T11:09:52;-2.10;95.50
47616;DHT22;69146;52.266;7.000;2024-01-10T11:12:50;-2.10;95.10
47616;DHT22;69146;52.266;7.000;2024-01-10T11:15:54;-2.00;95.00
47616;DHT22;69146;52.266;7.000;2024-01-10T11:18:49;-1.90;95.00
47616;DHT22;69146;52.266;7.000;2024-01-10T11:21:37;-1.90;95.00
47616;DHT22;69146;52.266;7.000;2024-01-10T11:24:27;-1.90;94.90
47616;DHT22;69146;52.266;7.000;2024-01-10T11:27:12;-1.80;95.10
47616;DHT22;69146;52.266;7.000;2024-01-10T11:29:57;-1.80;94.40
47616;DHT22;69146;52.266;7.000;2024-01-10T11:32:44;-1.80;94.80
47616;DHT22;69146;52.266;7.000;2024-01-10T11:35:29;-1.80;95.10
47616;DHT22;69146;52.266;7.000;2024-01-10T11:38:16;-1.70;94.50
47616;DHT22;69146;52.266;7.000;2024-01-10T11:41:02;-1.70;94.60
47616;DHT22;69146;52.266;7.000;2024-01-10T11:46:52;-1.60;94.50
47616;DHT22;69146;52.266;7.000;2024-01-10T11:49:39;-1.60;93.90
47616;DHT22;69146;52.266;7.000;2024-01-10T11:52:23;-1.60;94.10
47616;DHT22;69146;52.266;7.000;2024-01-10T11:55:08;-1.70;94.30
47616;DHT22;69146;52.266;7.000;2024-01-10T11:58:03;-1.70;94.60
47616;DHT22;69146;52.266;7.000;2024-01-10T12:00:51;-1.60;94.20
47616;DHT22;69146;52.266;7.000;2024-01-10T12:03:36;-1.60;94.10
47616;DHT22;69146;52.266;7.000;2024-01-10T12:06:22;-1.60;93.70
47616;DHT22;69146;52.266;7.000;2024-01-10T12:09:07;-1.60;93.60
47616;DHT22;69146;52.266;7.000;2024-01-10T12:11:56;-1.60;93.80
47616;DHT22;69146;52.266;7.000;2024-01-10T12:14:40;-1.60;93.80
47616;DHT22;69146;52.266;7.000;2024-01-10T12:17:26;-1.50;93.80
47616;DHT22;69146;52.266;7.000;2024-01-10T12:20:11;-1.50;94.10
47616;DHT22;69146;52.266;7.000;2024-01-10T12:22:56;-1.50;93.90
47616;DHT22;69146;52.266;7.000;2024-01-10T12:25:41;-1.40;94.10
47616;DHT22;69146;52.266;7.000;2024-01-10T12:28:26;-1.40;93.90
47616;DHT22;69146;52.266;7.000;2024-01-10T12:31:10;-1.30;93.80
47616;DHT22;69146;52.266;7.000;2024-01-10T12:33:54;-1.30;94.20
47616;DHT22;69146;52.266;7.000;2024-01-10T12:36:39;-1.30;93.80
47616;DHT22;69146;52.266;7.000;2024-01-10T12:39:25;-1.20;93.80
47616;DHT22;69146;52.266;7.000;2024-01-10T12:42:15;-1.30;94.00
47616;DHT22;69146;52.266;7.000;2024-01-10T12:45:00;-1.20;93.80
47616;DHT22;69146;52.266;7.000;2024-01-10T12:47:44;-1.10;93.70
47616;DHT22;69146;52.266;7.000;2024-01-10T12:50:31;-1.10;93.30
47616;DHT22;69146;52.266;7.000;2024-01-10T12:53:15;-1.10;93.20
47616;DHT22;69146;52.266;7.000;2024-01-10T12:56:01;-1.00;93.60
47616;DHT22;69146;52.266;7.000;2024-01-10T12:58:45;-1.00;93.70
47616;DHT22;69146;52.266;7.000;2024-01-10T13:01:30;-1.10;94.20
47616;DHT22;69146;52.266;7.000;2024-01-10T13:04:14;-1.10;94.10
47616;DHT22;69146;52.266;7.000;2024-01-10T13:06:59;-1.00;93.80
47616;DHT22;69146;52.266;7.000;2024-01-10T13:09:45;-0.90;93.20
47616;DHT22;69146;52.266;7.000;2024-01-10T13:12:31;-1.00;93.60
47616;DHT22;69146;52.266;7.000;2024-01-10T13:15:16;-0.90;93.40
47616;DHT22;69146;52.266;7.000;2024-01-10T13:18:00;-0.90;93.10
47616;DHT22;69146;52.266;7.000;2024-01-10T13:20:45;-0.90;93.70
47616;DHT22;69146;52.266;7.000;2024-01-10T13:23:29;-0.90;93.40
47616;DHT22;69146;52.266;7.000;2024-01-10T13:26:14;-0.90;93.40
47616;DHT22;69146;52.266;7.000;2024-01-10T13:29:00;-0.90;93.30
47616;DHT22;69146;52.266;7.000;2024-01-10T13:31:47;-0.80;93.00
47616;DHT22;69146;52.266;7.000;2024-01-10T13:34:34;-0.80;93.10
47616;DHT22;69146;52.266;7.000;2024-01-10T13:37:18;-0.80;92.90
47616;DHT22;69146;52.266;7.000;2024-01-10T13:40:03;-0.80;92.90
47616;DHT22;69146;52.266;7.000;2024-01-10T13:42:51;-0.80;92.70
47616;DHT22;69146;52.266;7.000;2024-01-10T13:45:36;-0.80;93.10
47616;DHT22;69146;52.266;7.000;2024-01-10T13:48:23;-0.80;93.00
47616;DHT22;69146;52.266;7.000;2024-01-10T13:51:07;-0.80;93.00
47616;DHT22;69146;52.266;7.000;2024-01-10T13:53:53;-0.80;93.00
47616;DHT22;69146;52.266;7.000;2024-01-10T13:56:37;-0.80;92.80
47616;DHT22;69146;52.266;7.000;2024-01-10T13:59:23;-0.80;92.30
47616;DHT22;69146;52.266;7.000;2024-01-10T14:02:09;-0.70;92.40
47616;DHT22;69146;52.266;7.000;2024-01-10T14:04:54;-0.80;92.40
47616;DHT22;69146;52.266;7.000;2024-01-10T14:07:38;-0.80;92.80
47616;DHT22;69146;52.266;7.000;2024-01-10T14:10:22;-0.70;92.30
47616;DHT22;69146;52.266;7.000;2024-01-10T14:13:08;-0.70;92.40
47616;DHT22;69146;52.266;7.000;2024-01-10T14:15:52;-0.80;92.10
47616;DHT22;69146;52.266;7.000;2024-01-10T14:18:38;-0.80;92.10
47616;DHT22;69146;52.266;7.000;2024-01-10T14:21:22;-0.80;92.00
47616;DHT22;69146;52.266;7.000;2024-01-10T14:24:07;-0.80;92.00
47616;DHT22;69146;52.266;7.000;2024-01-10T14:26:51;-0.80;92.40
47616;DHT22;69146;52.266;7.000;2024-01-10T14:29:35;-0.80;92.40
47616;DHT22;69146;52.266;7.000;2024-01-10T14:32:20;-0.90;92.80
47616;DHT22;69146;52.266;7.000;2024-01-10T14:35:07;-0.90;92.80
47616;DHT22;69146;52.266;7.000;2024-01-10T14:37:51;-0.90;92.70
47616;DHT22;69146;52.266;7.000;2024-01-10T14:40:37;-0.90;92.90
47616;DHT22;69146;52.266;7.000;2024-01-10T14:43:21;-0.90;92.90
47616;DHT22;69146;52.266;7.000;2024-01-10T14:46:06;-0.90;93.00
47616;DHT22;69146;52.266;7.000;2024-01-10T14:48:50;-0.90;92.80
47616;DHT22;69146;52.266;7.000;2024-01-10T14:51:36;-1.00;93.20
47616;DHT22;69146;52.266;7.000;2024-01-10T14:54:21;-1.00;93.20
47616;DHT22;69146;52.266;7.000;2024-01-10T14:57:06;-1.10;93.30
47616;DHT22;69146;52.266;7.000;2024-01-10T14:59:51;-1.10;93.70
47616;DHT22;69146;52.266;7.000;2024-01-10T15:02:36;-1.10;93.40
47616;DHT22;69146;52.266;7.000;2024-01-10T15:05:21;-1.10;93.70
47616;DHT22;69146;52.266;7.000;2024-01-10T15:08:07;-1.20;93.90
47616;DHT22;69146;52.266;7.000;2024-01-10T15:10:53;-1.20;94.10
47616;DHT22;69146;52.266;7.000;2024-01-10T15:13:38;-1.20;94.40
47616;DHT22;69146;52.266;7.000;2024-01-10T15:16:26;-1.20;94.50
47616;DHT22;69146;52.266;7.000;2024-01-10T15:19:10;-1.30;94.80
47616;DHT22;69146;52.266;7.000;2024-01-10T15:21:55;-1.30;94.80
47616;DHT22;69146;52.266;7.000;2024-01-10T15:24:41;-1.30;94.90
47616;DHT22;69146;52.266;7.000;2024-01-10T15:27:26;-1.40;94.80
47616;DHT22;69146;52.266;7.000;2024-01-10T15:30:12;-1.50;95.00
47616;DHT22;69146;52.266;7.000;2024-01-10T15:32:57;-1.60;95.30
47616;DHT22;69146;52.266;7.000;2024-01-10T15:35:42;-1.60;95.30
47616;DHT22;69146;52.266;7.000;2024-01-10T15:38:26;-1.60;95.40
47616;DHT22;69146;52.266;7.000;2024-01-10T15:41:12;-1.60;95.50
47616;DHT22;69146;52.266;7.000;2024-01-10T15:43:57;-1.70;95.50
47616;DHT22;69146;52.266;7.000;2024-01-10T15:46:41;-1.70;95.80
47616;DHT22;69146;52.266;7.000;2024-01-10T15:49:27;-1.70;95.70
47616;DHT22;69146;52.266;7.000;2024-01-10T15:52:11;-1.80;95.60
47616;DHT22;69146;52.266;7.000;2024-01-10T15:54:57;-1.80;95.70
47616;DHT22;69146;52.266;7.000;2024-01-10T15:57:43;-1.90;95.80
47616;DHT22;69146;52.266;7.000;2024-01-10T16:00:31;-1.90;95.90
47616;DHT22;69146;52.266;7.000;2024-01-10T16:03:16;-1.90;96.20
47616;DHT22;69146;52.266;7.000;2024-01-10T16:06:01;-2.00;96.30
47616;DHT22;69146;52.266;7.000;2024-01-10T16:08:45;-2.00;96.60
47616;DHT22;69146;52.266;7.000;2024-01-10T16:11:29;-2.10;96.60
47616;DHT22;69146;52.266;7.000;2024-01-10T16:14:15;-2.10;96.70
47616;DHT22;69146;52.266;7.000;2024-01-10T16:16:59;-2.10;96.80
47616;DHT22;69146;52.266;7.000;2024-01-10T16:19:44;-2.20;97.00
47616;DHT22;69146;52.266;7.000;2024-01-10T16:22:28;-2.20;96.70
47616;DHT22;69146;52.266;7.000;2024-01-10T16:25:13;-2.20;96.40
47616;DHT22;69146;52.266;7.000;2024-01-10T16:27:57;-2.20;96.40
47616;DHT22;69146;52.266;7.000;2024-01-10T16:30:43;-2.20;96.40
47616;DHT22;69146;52.266;7.000;2024-01-10T16:33:28;-2.20;96.30
47616;DHT22;69146;52.266;7.000;2024-01-10T16:36:13;-2.20;96.60
47616;DHT22;69146;52.266;7.000;2024-01-10T16:38:57;-2.30;96.70
47616;DHT22;69146;52.266;7.000;2024-01-10T16:41:41;-2.30;96.50
47616;DHT22;69146;52.266;7.000;2024-01-10T16:44:26;-2.20;96.40
47616;DHT22;69146;52.266;7.000;2024-01-10T16:47:11;-2.20;96.60
47616;DHT22;69146;52.266;7.000;2024-01-10T16:49:56;-2.30;96.60
47616;DHT22;69146;52.266;7.000;2024-01-10T16:52:40;-2.20;96.60
47616;DHT22;69146;52.266;7.000;2024-01-10T16:55:25;-2.30;96.60
47616;DHT22;69146;52.266;7.000;2024-01-10T16:58:10;-2.30;96.70
47616;DHT22;69146;52.266;7.000;2024-01-10T17:00:54;-2.30;96.90
47616;DHT22;69146;52.266;7.000;2024-01-10T17:03:40;-2.30;96.70
47616;DHT22;69146;52.266;7.000;2024-01-10T17:06:24;-2.40;96.70
47616;DHT22;69146;52.266;7.000;2024-01-10T17:09:09;-2.40;96.70
47616;DHT22;69146;52.266;7.000;2024-01-10T17:11:53;-2.40;96.90
47616;DHT22;69146;52.266;7.000;2024-01-10T17:14:38;-2.40;97.00
47616;DHT22;69146;52.266;7.000;2024-01-10T17:17:22;-2.40;96.90
47616;DHT22;69146;52.266;7.000;2024-01-10T17:20:08;-2.40;97.00
47616;DHT22;69146;52.266;7.000;2024-01-10T17:22:52;-2.50;97.10
47616;DHT22;69146;52.266;7.000;2024-01-10T17:25:38;-2.50;97.10